createdAt,value
2019-03-28T00:00:01.884Z,99.00
2019-03-28T00:02:30.647Z,99.00
2019-03-28T00:04:59.466Z,99.10
2019-03-28T00:07:28.269Z,99.10
2019-03-28T00:09:57.084Z,99.10
2019-03-28T00:12:25.778Z,99.00
2019-03-28T00:14:54.532Z,99.00
2019-03-28T00:17:23.276Z,99.10
2019-03-28T00:19:52.110Z,99.20
2019-03-28T00:22:39.147Z,99.20
2019-03-28T00:25:09.564Z,99.10
2019-03-28T00:27:38.356Z,99.00
2019-03-28T00:30:08.148Z,99.10
2019-03-28T00:32:36.983Z,99.00
2019-03-28T00:35:06.828Z,99.00
2019-03-28T00:37:35.615Z,99.00
2019-03-28T00:40:06.532Z,99.10
2019-03-28T00:42:35.278Z,99.20
2019-03-28T00:45:06.232Z,99.20
2019-03-28T00:47:35.076Z,99.10
2019-03-28T00:50:06.197Z,99.20
2019-03-28T00:52:35.090Z,99.30
2019-03-28T00:55:04.947Z,99.30
2019-03-28T00:57:33.716Z,99.30
2019-03-28T01:00:02.596Z,99.30
2019-03-28T01:02:31.459Z,99.30
2019-03-28T01:05:00.621Z,99.30
2019-03-28T01:07:29.427Z,99.30
2019-03-28T01:09:58.268Z,99.40
2019-03-28T01:12:27.338Z,99.40
2019-03-28T01:14:56.244Z,99.30
2019-03-28T01:17:25.068Z,99.30
2019-03-28T01:19:53.853Z,99.30
2019-03-28T01:22:22.714Z,99.40
2019-03-28T01:24:51.549Z,99.30
2019-03-28T01:27:20.364Z,99.30
2019-03-28T01:29:49.164Z,99.30
2019-03-28T01:32:17.982Z,99.30
2019-03-28T01:34:46.739Z,99.20
2019-03-28T01:37:15.564Z,99.30
2019-03-28T01:39:45.444Z,99.30
2019-03-28T01:42:14.196Z,99.30
2019-03-28T01:44:43.181Z,99.40
2019-03-28T01:47:12.044Z,99.40
2019-03-28T01:49:40.796Z,99.40
2019-03-28T01:52:09.676Z,99.40
2019-03-28T01:54:38.438Z,99.50
2019-03-28T01:57:11.187Z,99.50
2019-03-28T01:59:37.787Z,99.40
2019-03-28T02:02:06.627Z,99.50
2019-03-28T02:04:35.292Z,99.50
2019-03-28T02:07:04.157Z,99.60
2019-03-28T02:09:32.964Z,99.50
2019-03-28T02:12:01.845Z,99.60
2019-03-28T02:14:30.620Z,99.60
2019-03-28T02:16:59.444Z,99.60
2019-03-28T02:19:28.236Z,99.60
2019-03-28T02:21:57.125Z,99.60
2019-03-28T02:24:26.336Z,99.60
2019-03-28T02:26:55.268Z,99.60
2019-03-28T02:29:24.154Z,99.60
2019-03-28T02:31:52.941Z,99.70
2019-03-28T02:34:21.695Z,99.60
2019-03-28T02:36:50.486Z,99.70
2019-03-28T02:39:19.262Z,99.70
2019-03-28T02:41:48.101Z,99.70
2019-03-28T02:44:16.964Z,99.70
2019-03-28T02:46:45.716Z,99.70
2019-03-28T02:49:14.494Z,99.70
2019-03-28T02:51:43.356Z,99.70
2019-03-28T02:54:12.186Z,99.60
2019-03-28T02:56:41.738Z,99.60
2019-03-28T02:59:11.017Z,99.50
2019-03-28T03:01:40.489Z,99.60
2019-03-28T03:04:09.442Z,99.60
2019-03-28T03:06:38.301Z,99.90
2019-03-28T03:09:09.374Z,99.70
2019-03-28T03:11:38.245Z,99.70
2019-03-28T03:14:07.109Z,99.80
2019-03-28T03:16:35.877Z,99.80
2019-03-28T03:19:04.724Z,99.80
2019-03-28T03:21:33.587Z,99.50
2019-03-28T03:24:02.502Z,99.70
2019-03-28T03:26:31.388Z,99.70
2019-03-28T03:29:00.276Z,99.60
2019-03-28T03:31:29.161Z,99.60
2019-03-28T03:33:58.034Z,99.60
2019-03-28T03:36:26.939Z,99.70
2019-03-28T03:38:55.761Z,99.70
2019-03-28T03:41:24.506Z,99.80
2019-03-28T03:43:53.509Z,99.60
2019-03-28T03:46:22.356Z,99.60
2019-03-28T03:48:51.181Z,99.70
2019-03-28T03:51:20.071Z,99.60
2019-03-28T03:53:48.854Z,99.70
2019-03-28T03:56:17.853Z,99.70
2019-03-28T03:58:46.717Z,99.70
2019-03-28T04:01:15.484Z,99.70
2019-03-28T04:03:44.332Z,99.60
2019-03-28T04:06:13.157Z,99.70
2019-03-28T04:08:41.982Z,99.70
2019-03-28T04:11:10.747Z,99.80
2019-03-28T04:13:39.648Z,99.80
2019-03-28T04:16:08.429Z,99.70
2019-03-28T04:18:37.180Z,99.70
2019-03-28T04:21:06.004Z,99.90
2019-03-28T04:23:34.837Z,99.80
2019-03-28T04:26:03.573Z,99.70
2019-03-28T04:28:32.842Z,99.80
2019-03-28T04:31:01.676Z,99.70
2019-03-28T04:33:30.520Z,99.60
2019-03-28T04:35:59.398Z,99.70
2019-03-28T04:38:28.255Z,99.80
2019-03-28T04:40:56.999Z,99.80
2019-03-28T04:43:25.855Z,99.80
2019-03-28T04:45:56.463Z,99.80
2019-03-28T04:48:25.420Z,99.90
2019-03-28T04:51:18.100Z,99.90
2019-03-28T04:53:46.629Z,99.80
2019-03-28T04:56:15.525Z,99.80
2019-03-28T04:58:45.056Z,99.80
2019-03-28T05:01:13.907Z,99.80
2019-03-28T05:03:42.693Z,99.80
2019-03-28T05:06:11.524Z,99.90
2019-03-28T05:08:40.356Z,99.90
2019-03-28T05:11:09.219Z,99.90
2019-03-28T05:13:38.044Z,99.90
2019-03-28T05:16:06.798Z,99.90
2019-03-28T05:18:35.620Z,99.90
2019-03-28T05:21:04.443Z,99.80
2019-03-28T05:23:33.253Z,99.80
2019-03-28T05:26:02.125Z,99.80
2019-03-28T05:28:30.886Z,99.80
2019-03-28T05:30:59.726Z,99.80
2019-03-28T05:33:28.595Z,99.80
2019-03-28T05:35:57.429Z,99.80
2019-03-28T05:38:26.180Z,99.80
2019-03-28T05:40:55.060Z,99.80
2019-03-28T05:43:23.914Z,99.80
2019-03-28T05:45:52.676Z,99.80
2019-03-28T05:48:21.573Z,99.90
2019-03-28T05:50:50.412Z,99.90
2019-03-28T05:53:19.275Z,99.90
2019-03-28T05:55:48.189Z,99.90
2019-03-28T05:58:17.013Z,99.90
2019-03-28T06:00:45.878Z,99.90
2019-03-28T06:03:14.682Z,99.90
2019-03-28T06:05:43.556Z,99.90
2019-03-28T06:08:12.389Z,99.80
2019-03-28T06:10:41.196Z,99.90
2019-03-28T06:13:10.667Z,99.90
2019-03-28T06:15:41.070Z,99.90
2019-03-28T06:18:10.095Z,99.90
2019-03-28T06:20:38.924Z,99.90
2019-03-28T06:23:07.762Z,99.90
2019-03-28T06:25:39.429Z,99.90
2019-03-28T06:28:07.108Z,99.90
2019-03-28T06:30:35.949Z,99.90
2019-03-28T06:33:04.787Z,99.90
2019-03-28T06:35:33.637Z,99.90
2019-03-28T06:38:02.453Z,99.90
2019-03-28T06:40:31.458Z,99.80
2019-03-28T06:43:00.490Z,99.80
2019-03-28T06:45:29.236Z,99.90
2019-03-28T06:47:58.101Z,99.90
2019-03-28T06:50:26.898Z,99.90
2019-03-28T06:52:56.157Z,99.90
2019-03-28T06:55:25.594Z,99.90
2019-03-28T06:57:54.548Z,99.80
2019-03-28T07:00:23.410Z,99.80
2019-03-28T07:02:52.284Z,99.90
2019-03-28T07:05:21.045Z,99.80
2019-03-28T07:07:49.814Z,99.80
2019-03-28T07:10:18.587Z,99.80
2019-03-28T07:12:47.363Z,99.80
2019-03-28T07:15:16.133Z,99.70
2019-03-28T07:17:44.996Z,99.70
2019-03-28T07:20:14.147Z,99.60
2019-03-28T07:22:45.781Z,99.60
2019-03-28T07:25:13.548Z,99.70
2019-03-28T07:27:43.553Z,99.70
2019-03-28T07:30:14.492Z,99.60
2019-03-28T07:32:43.760Z,99.70
2019-03-28T07:35:12.709Z,99.60
2019-03-28T07:37:41.428Z,99.60
2019-03-28T07:40:10.558Z,99.50
2019-03-28T07:42:39.314Z,99.50
2019-03-28T07:45:09.212Z,99.40
2019-03-28T07:47:38.468Z,99.30
2019-03-28T07:50:09.463Z,99.30
2019-03-28T07:52:38.403Z,99.30
2019-03-28T07:55:07.967Z,99.30
2019-03-28T07:57:36.828Z,99.20
2019-03-28T08:00:08.700Z,99.20
2019-03-28T08:02:37.509Z,99.10
2019-03-28T08:05:08.531Z,99.20
2019-03-28T08:07:44.845Z,99.30
2019-03-28T08:10:08.477Z,99.40
2019-03-28T08:12:37.302Z,99.40
2019-03-28T08:15:08.193Z,99.40
2019-03-28T08:17:36.948Z,99.30
2019-03-28T08:20:08.260Z,99.10
2019-03-28T08:22:37.044Z,99.10
2019-03-28T08:25:11.379Z,99.10
2019-03-28T08:27:38.820Z,99.20
2019-03-28T08:30:18.193Z,99.00
2019-03-28T08:32:40.829Z,99.00
2019-03-28T08:35:10.431Z,99.10
2019-03-28T08:37:40.284Z,99.20
2019-03-28T08:40:10.244Z,99.30
2019-03-28T08:42:39.018Z,98.90
2019-03-28T08:45:08.915Z,98.90
2019-03-28T08:47:37.766Z,98.90
2019-03-28T08:50:08.160Z,99.00
2019-03-28T08:52:36.974Z,98.90
2019-03-28T08:55:10.087Z,98.90
2019-03-28T08:57:39.148Z,99.00
2019-03-28T09:00:11.078Z,98.80
2019-03-28T09:02:39.836Z,98.90
2019-03-28T09:05:08.586Z,98.90
2019-03-28T09:07:37.507Z,98.60
2019-03-28T09:10:09.699Z,98.70
2019-03-28T09:12:38.500Z,98.70
2019-03-28T09:15:08.812Z,98.80
2019-03-28T09:17:37.628Z,98.70
2019-03-28T09:20:08.571Z,98.70
2019-03-28T09:22:39.005Z,98.70
2019-03-28T09:25:08.451Z,98.80
2019-03-28T09:27:37.274Z,98.80
2019-03-28T09:30:08.686Z,98.90
2019-03-28T09:32:37.555Z,98.90
2019-03-28T09:35:10.940Z,98.60
2019-03-28T09:37:39.810Z,98.70
2019-03-28T09:40:08.636Z,98.60
2019-03-28T09:42:37.404Z,97.70
2019-03-28T09:45:07.533Z,98.00
2019-03-28T09:47:36.275Z,98.20
2019-03-28T09:50:06.813Z,98.00
2019-03-28T09:52:35.612Z,97.90
2019-03-28T09:55:05.979Z,97.80
2019-03-28T09:57:34.750Z,97.20
2019-03-28T10:00:05.541Z,96.90
2019-03-28T10:02:34.308Z,96.70
2019-03-28T10:05:03.332Z,96.90
2019-03-28T10:07:32.194Z,97.20
2019-03-28T10:10:01.953Z,97.00
2019-03-28T10:12:34.019Z,97.30
2019-03-28T10:15:01.333Z,97.00
2019-03-28T10:17:30.188Z,96.90
2019-03-28T10:19:58.988Z,97.00
2019-03-28T10:22:27.797Z,96.60
2019-03-28T10:24:56.564Z,95.80
2019-03-28T10:27:25.387Z,96.00
2019-03-28T10:29:54.212Z,96.30
2019-03-28T10:32:22.972Z,96.30
2019-03-28T10:34:51.700Z,96.50
2019-03-28T10:37:20.498Z,96.50
2019-03-28T10:39:49.348Z,96.70
2019-03-28T10:42:18.193Z,96.80
2019-03-28T10:44:47.093Z,96.40
2019-03-28T10:47:15.846Z,96.30
2019-03-28T10:49:44.669Z,96.20
2019-03-28T10:52:13.536Z,96.40
2019-03-28T10:54:42.396Z,96.30
2019-03-28T10:57:15.409Z,96.30
2019-03-28T10:59:44.594Z,95.50
2019-03-28T11:02:13.421Z,95.70
2019-03-28T11:04:42.254Z,95.90
2019-03-28T11:07:11.133Z,95.60
2019-03-28T11:09:39.965Z,96.00
2019-03-28T11:12:08.725Z,96.30
2019-03-28T11:14:37.636Z,96.20
2019-03-28T11:17:06.396Z,96.30
2019-03-28T11:19:35.235Z,96.10
2019-03-28T11:22:04.110Z,95.50
2019-03-28T11:24:32.932Z,95.50
2019-03-28T11:27:01.765Z,95.40
2019-03-28T11:29:30.658Z,95.40
2019-03-28T11:31:59.483Z,95.60
2019-03-28T11:34:28.317Z,95.80
2019-03-28T11:36:57.233Z,95.70
2019-03-28T11:39:25.971Z,95.90
2019-03-28T11:41:54.741Z,95.90
2019-03-28T11:44:23.597Z,95.90
2019-03-28T11:46:52.444Z,96.00
2019-03-28T11:49:21.258Z,96.00
2019-03-28T11:51:50.156Z,96.00
2019-03-28T11:54:18.950Z,95.60
2019-03-28T11:56:47.700Z,95.80
2019-03-28T11:59:16.747Z,96.00
2019-03-28T12:01:59.100Z,96.00
2019-03-28T12:04:16.508Z,96.10
2019-03-28T12:06:45.298Z,96.30
2019-03-28T12:09:14.091Z,96.40
2019-03-28T12:11:42.932Z,96.40
2019-03-28T12:14:11.860Z,95.80
2019-03-28T12:16:40.602Z,96.30
2019-03-28T12:19:09.372Z,96.60
2019-03-28T12:21:38.312Z,96.30
2019-03-28T12:24:07.172Z,96.20
2019-03-28T12:26:36.010Z,96.20
2019-03-28T12:29:05.863Z,96.30
2019-03-28T12:31:34.940Z,96.40
2019-03-28T12:34:03.772Z,96.20
2019-03-28T12:36:32.635Z,96.20
2019-03-28T12:39:01.388Z,96.40
2019-03-28T12:41:30.254Z,96.40
2019-03-28T12:43:59.116Z,96.20
2019-03-28T12:46:27.923Z,96.20
2019-03-28T12:48:56.756Z,96.30
2019-03-28T12:51:26.515Z,96.50
2019-03-28T12:53:55.421Z,96.30
2019-03-28T12:56:26.371Z,96.60
2019-03-28T12:58:54.829Z,96.70
2019-03-28T13:01:24.490Z,96.70
2019-03-28T13:03:53.413Z,96.70
2019-03-28T13:06:22.211Z,96.90
2019-03-28T13:08:51.004Z,96.30
2019-03-28T13:11:19.918Z,96.50
2019-03-28T13:13:48.756Z,96.40
2019-03-28T13:16:17.610Z,96.30
2019-03-28T13:18:46.437Z,96.30
2019-03-28T13:21:15.254Z,96.50
2019-03-28T13:23:44.029Z,96.80
2019-03-28T13:26:12.853Z,96.90
2019-03-28T13:28:41.747Z,96.60
2019-03-28T13:31:10.600Z,95.80
2019-03-28T13:33:39.445Z,95.90
2019-03-28T13:36:08.252Z,95.90
2019-03-28T13:38:37.098Z,96.10
2019-03-28T13:41:05.932Z,96.50
2019-03-28T13:43:34.814Z,96.00
2019-03-28T13:46:03.676Z,96.00
2019-03-28T13:48:32.531Z,95.90
2019-03-28T13:51:01.325Z,95.20
2019-03-28T13:53:39.460Z,95.20
2019-03-28T13:56:00.532Z,95.70
2019-03-28T13:58:29.394Z,95.80
2019-03-28T14:00:58.156Z,95.50
2019-03-28T14:03:26.965Z,95.40
2019-03-28T14:05:55.827Z,95.20
2019-03-28T14:08:24.683Z,95.40
2019-03-28T14:10:53.532Z,95.50
2019-03-28T14:13:22.396Z,95.10
2019-03-28T14:15:51.228Z,95.20
2019-03-28T14:18:19.995Z,95.60
2019-03-28T14:20:48.903Z,95.60
2019-03-28T14:23:18.526Z,95.60
2019-03-28T14:25:47.469Z,95.70
2019-03-28T14:28:16.364Z,95.30
2019-03-28T14:30:45.231Z,95.20
2019-03-28T14:33:15.878Z,95.50
2019-03-28T14:35:44.492Z,95.30
2019-03-28T14:38:13.259Z,95.60
2019-03-28T14:40:42.078Z,95.40
2019-03-28T14:43:10.949Z,95.00
2019-03-28T14:45:39.674Z,95.00
2019-03-28T14:48:08.492Z,94.80
2019-03-28T14:50:39.067Z,94.70
2019-03-28T14:53:08.260Z,95.10
2019-03-28T14:55:37.101Z,95.20
2019-03-28T14:58:07.071Z,95.20
2019-03-28T15:00:46.565Z,95.20
2019-03-28T15:03:25.024Z,95.30
2019-03-28T15:05:44.690Z,95.30
2019-03-28T15:08:13.540Z,95.40
2019-03-28T15:10:42.540Z,95.50
2019-03-28T15:13:11.331Z,95.60
2019-03-28T15:15:40.164Z,95.70
2019-03-28T15:18:08.981Z,95.40
2019-03-28T15:20:37.732Z,95.50
2019-03-28T15:23:06.556Z,95.50
2019-03-28T15:25:35.453Z,95.10
2019-03-28T15:28:04.263Z,95.30
2019-03-28T15:30:33.045Z,95.10
2019-03-28T15:33:01.925Z,95.20
2019-03-28T15:35:30.702Z,95.40
2019-03-28T15:37:59.531Z,95.50
2019-03-28T15:40:28.412Z,95.50
2019-03-28T15:42:57.187Z,95.50
2019-03-28T15:45:26.027Z,95.30
2019-03-28T15:47:54.894Z,95.30
2019-03-28T15:50:23.732Z,95.20
2019-03-28T15:52:52.572Z,95.40
2019-03-28T15:55:21.467Z,95.20
2019-03-28T15:57:50.309Z,95.70
2019-03-28T16:00:19.716Z,95.40
2019-03-28T16:02:48.533Z,95.40
2019-03-28T16:05:17.284Z,95.40
2019-03-28T16:07:46.138Z,95.50
2019-03-28T16:10:16.604Z,95.50
2019-03-28T16:12:45.457Z,95.40
2019-03-28T16:15:15.316Z,95.30
2019-03-28T16:17:44.234Z,95.30
2019-03-28T16:20:13.566Z,95.30
2019-03-28T16:22:42.373Z,95.20
2019-03-28T16:25:12.269Z,95.30
2019-03-28T16:27:41.226Z,95.40
2019-03-28T16:30:12.644Z,95.40
2019-03-28T16:32:41.518Z,95.50
2019-03-28T16:35:10.636Z,95.60
2019-03-28T16:37:39.468Z,95.70
2019-03-28T16:40:08.580Z,95.70
2019-03-28T16:42:37.411Z,95.80
2019-03-28T16:45:08.167Z,95.70
2019-03-28T16:47:37.026Z,95.80
2019-03-28T16:50:06.260Z,96.00
2019-03-28T16:52:35.088Z,96.10
2019-03-28T16:55:04.620Z,96.20
2019-03-28T16:57:33.450Z,96.10
2019-03-28T17:00:02.220Z,96.00
2019-03-28T17:02:31.036Z,96.40
2019-03-28T17:04:59.876Z,96.20
2019-03-28T17:07:29.243Z,96.30
2019-03-28T17:09:58.716Z,96.40
2019-03-28T17:12:27.732Z,96.50
2019-03-28T17:14:56.749Z,96.50
2019-03-28T17:17:25.606Z,96.80
2019-03-28T17:19:54.428Z,96.50
2019-03-28T17:22:23.196Z,96.50
2019-03-28T17:24:52.026Z,96.50
2019-03-28T17:27:20.775Z,96.60
2019-03-28T17:29:49.597Z,96.70
2019-03-28T17:32:18.517Z,96.70
2019-03-28T17:34:47.331Z,96.60
2019-03-28T17:37:16.155Z,96.50
2019-03-28T17:39:44.943Z,96.60
2019-03-28T17:42:13.789Z,96.70
2019-03-28T17:44:42.619Z,96.70
2019-03-28T17:47:11.445Z,96.80
2019-03-28T17:49:40.220Z,96.90
2019-03-28T17:52:09.068Z,97.00
2019-03-28T17:54:38.057Z,97.00
2019-03-28T17:57:06.812Z,96.90
2019-03-28T17:59:35.642Z,96.90
2019-03-28T18:02:04.508Z,96.90
2019-03-28T18:04:33.251Z,97.30
2019-03-28T18:07:02.119Z,97.00
2019-03-28T18:09:30.948Z,97.00
2019-03-28T18:11:59.797Z,97.10
2019-03-28T18:14:28.690Z,97.10
2019-03-28T18:16:57.556Z,97.30
2019-03-28T18:19:26.535Z,97.30
2019-03-28T18:22:03.353Z,97.30
2019-03-28T18:24:26.586Z,97.40
2019-03-28T18:26:55.452Z,97.40
2019-03-28T18:29:24.204Z,97.50
2019-03-28T18:31:53.125Z,97.60
2019-03-28T18:34:21.963Z,97.70
2019-03-28T18:36:50.796Z,97.80
2019-03-28T18:39:19.733Z,97.80
2019-03-28T18:41:48.613Z,97.80
2019-03-28T18:44:17.480Z,97.80
2019-03-28T18:46:46.395Z,97.80
2019-03-28T18:49:15.287Z,97.80
2019-03-28T18:51:44.093Z,97.70
2019-03-28T18:54:12.932Z,97.90
2019-03-28T18:56:41.700Z,97.80
2019-03-28T18:59:10.589Z,97.80
2019-03-28T19:01:39.469Z,97.80
2019-03-28T19:04:08.308Z,97.90
2019-03-28T19:06:37.107Z,97.80
2019-03-28T19:09:07.405Z,97.90
2019-03-28T19:11:36.228Z,97.90
2019-03-28T19:14:05.236Z,97.60
2019-03-28T19:16:34.850Z,97.90
2019-03-28T19:19:03.692Z,97.90
2019-03-28T19:21:32.532Z,98.00
2019-03-28T19:24:01.413Z,98.00
2019-03-28T19:26:30.234Z,98.00
2019-03-28T19:28:58.987Z,98.10
2019-03-28T19:31:27.796Z,98.10
2019-03-28T19:33:56.595Z,98.10
2019-03-28T19:36:25.733Z,98.10
2019-03-28T19:38:54.588Z,98.10
2019-03-28T19:41:24.757Z,98.10
2019-03-28T19:43:54.580Z,98.10
2019-03-28T19:46:23.498Z,98.10
2019-03-28T19:48:52.252Z,98.10
2019-03-28T19:51:21.012Z,98.10
2019-03-28T19:53:49.906Z,98.10
2019-03-28T19:56:18.973Z,98.20
2019-03-28T19:58:47.788Z,98.20
2019-03-28T20:01:16.595Z,98.60
2019-03-28T20:03:46.973Z,98.30
2019-03-28T20:06:22.020Z,98.40
2019-03-28T20:08:46.578Z,98.20
2019-03-28T20:11:15.443Z,98.10
2019-03-28T20:13:44.180Z,98.00
2019-03-28T20:16:13.044Z,98.10
2019-03-28T20:18:43.164Z,98.10
2019-03-28T20:21:12.911Z,98.10
2019-03-28T20:23:41.820Z,98.20
2019-03-28T20:26:10.661Z,98.20
2019-03-28T20:28:39.500Z,98.10
2019-03-28T20:31:08.407Z,98.00
2019-03-28T20:33:37.865Z,98.10
2019-03-28T20:36:35.593Z,98.10
2019-03-28T20:38:37.514Z,98.10
2019-03-28T20:41:06.263Z,98.00
2019-03-28T20:43:35.058Z,98.10
2019-03-28T20:46:03.884Z,98.20
2019-03-28T20:48:32.706Z,98.20
2019-03-28T20:51:03.411Z,98.30
2019-03-28T20:53:31.979Z,98.30
2019-03-28T20:56:00.752Z,98.30
2019-03-28T20:58:29.554Z,98.30
2019-03-28T21:00:58.428Z,98.30
2019-03-28T21:03:27.270Z,98.30
2019-03-28T21:05:56.084Z,98.30
2019-03-28T21:08:24.996Z,98.30
2019-03-28T21:10:53.804Z,98.30
2019-03-28T21:13:22.651Z,98.40
2019-03-28T21:15:51.443Z,98.40
2019-03-28T21:18:20.205Z,98.50
2019-03-28T21:20:49.030Z,98.50
2019-03-28T21:23:17.923Z,98.50
2019-03-28T21:25:46.676Z,98.50
2019-03-28T21:28:15.421Z,98.50
2019-03-28T21:30:47.475Z,98.50
2019-03-28T21:33:15.130Z,98.50
2019-03-28T21:35:44.205Z,98.50
2019-03-28T21:38:13.060Z,98.60
2019-03-28T21:40:41.878Z,98.60
2019-03-28T21:43:10.732Z,98.60
2019-03-28T21:45:40.723Z,98.60
2019-03-28T21:48:09.676Z,98.60
2019-03-28T21:50:38.498Z,98.60
2019-03-28T21:53:07.339Z,98.90
2019-03-28T21:55:36.117Z,98.60
2019-03-28T21:58:05.018Z,98.50
2019-03-28T22:00:34.146Z,98.50
2019-03-28T22:03:02.959Z,98.50
2019-03-28T22:05:31.719Z,98.50
2019-03-28T22:08:00.596Z,98.50
2019-03-28T22:10:29.593Z,98.50
2019-03-28T22:12:58.372Z,98.50
2019-03-28T22:15:27.260Z,98.50
2019-03-28T22:17:56.099Z,98.60
2019-03-28T22:20:24.852Z,98.50
2019-03-28T22:22:55.120Z,98.60
2019-03-28T22:25:24.179Z,98.60
2019-03-28T22:27:52.926Z,98.60
2019-03-28T22:30:21.874Z,98.50
2019-03-28T22:32:50.724Z,98.60
2019-03-28T22:35:19.748Z,98.60
2019-03-28T22:37:48.661Z,98.90
2019-03-28T22:40:17.412Z,98.60
2019-03-28T22:42:46.251Z,98.60
2019-03-28T22:45:15.595Z,98.60
2019-03-28T22:47:44.323Z,98.90
2019-03-28T22:50:13.259Z,98.50
2019-03-28T22:52:42.140Z,98.50
2019-03-28T22:55:11.018Z,98.40
2019-03-28T22:57:39.754Z,98.40
2019-03-28T23:00:11.836Z,98.40
2019-03-28T23:02:40.669Z,98.40
2019-03-28T23:05:10.189Z,98.50
2019-03-28T23:07:38.954Z,98.60
2019-03-28T23:10:08.925Z,98.60
2019-03-28T23:12:37.747Z,98.60
2019-03-28T23:15:08.579Z,98.70
2019-03-28T23:17:37.322Z,98.70
2019-03-28T23:20:08.059Z,98.80
2019-03-28T23:22:36.852Z,98.80
2019-03-28T23:25:06.790Z,98.80
2019-03-28T23:27:35.618Z,98.80
2019-03-28T23:30:06.533Z,98.80
2019-03-28T23:32:35.355Z,98.80
2019-03-28T23:35:04.398Z,98.90
2019-03-28T23:37:33.181Z,98.80
2019-03-28T23:40:01.990Z,98.90
2019-03-28T23:42:30.820Z,98.90
2019-03-28T23:44:59.693Z,98.90
2019-03-28T23:47:28.434Z,98.90
2019-03-28T23:49:57.292Z,98.90
2019-03-28T23:52:26.164Z,98.90
2019-03-28T23:54:54.997Z,98.80
2019-03-28T23:57:23.818Z,98.80
2019-03-28T23:59:52.729Z,98.80
